Twining, MI

7:03 AM EST en Noviembre 28, 2014 (GMT -0500)
Barstow | Change Station
CLOSE
Current Station
Aeropuerto
Location: Midland,
Altura: 636 ft
Estaciones meteorológicas cercanas

Alt 636 ft 43.66 °N, 84.26 °W | Updated 8 minutes ago

Muy nublado
Muy nublado
18 ° F
Sensación térmica 18 ° F
N
0
Viento Variable Viento desde Norte

Hoy
Alta -- | Baja -- ° F
--% Posibilidad de precipitaciones
Ayer
Alta -- | Baja -- ° F
Precip. -- pul
7:47 AM 4:59 PM
Creciente, 39% visible
Presión 30.31 pul
Visibilidad 10.0 Millas
Nubes Despejado
Punto de rocío 14 ° F
Humedad 82%
Precipitaciones 0.00 pul
Espesor de la nieve No disponible.
UV 0 de una escala de 12
Polen .10 de una escala de 12
Calidad del aire No disponible.
Flu Activity No disponible.
METAR KIKW 281155Z AUTO 00000KT 10SM CLR M07/M10 A3031 RMK AO2 T10751101 11065 21091

More Conditions Fewer Conditions

Presión 30.31 pul
Visibilidad 10.0 Millas
Nubes Despejado
Punto de rocío 14 ° F
Humedad 82%
Precipitaciones 0.00 pul
Espesor de la nieve No disponible.
UV 0 de una escala de 12
Polen .10 de una escala de 12
Calidad del aire No disponible.
Flu Activity No disponible.
METAR KIKW 281155Z AUTO 00000KT 10SM CLR M07/M10 A3031 RMK AO2 T10751101 11065 21091

More Conditions Fewer Conditions

Nowcast | as of 7:00 am EST on November 28, 2014

At 8 am...partly sunny. Temperature 17. Southwest winds 6 mph. At 10 am...mostly cloudy. Temperature 20. Southwest winds 7 mph. At 12 PM...cloudy. Temperature 23. Southwest winds 8 mph. At 2 PM...snow likely. Temperature 24. Southwest winds 8 mph.

×

10-Day Weather Forecast

Almanac

Astronomía

Nov. 28, 2014 Salida Puesta
Hora real
Crepúsculo civil
Crepúsculo náutico
Crepúsculo astronómico
Luna
Horas de luz
Horas de luz
Tomorrow will be .
, % of the Moon is Illuminated

Extremos de hoy

Máximos del estado Bajos del estado

Community

WunderPhotos

Upload Photos

1,774,198 ¡fotos cargadas!

WunderBlogs® & News

Nearby

Calidad del aire

  Calidad del aire Índice AQ Contaminante
Not available.

Grosos de nieve

Estación Profundido Altura

Actividad de terremotos

Ciudad Distance Mag. Tiempo y dato
Magnitud mínima muestra es 2,5.

Temperaturas de aguas costeras

Lugar Temperatura

Estaciones meteorológicas cercanas